createdAt,value
2022-09-21T00:01:43.983Z,9.77
2022-09-21T00:04:12.320Z,9.73
2022-09-21T00:06:40.858Z,9.70
2022-09-21T00:09:09.718Z,9.68
2022-09-21T00:11:38.882Z,9.67
2022-09-21T00:14:11.324Z,9.66
2022-09-21T00:16:42.319Z,9.65
2022-09-21T00:19:11.123Z,9.61
2022-09-21T00:21:41.088Z,9.57
2022-09-21T00:24:09.914Z,9.54
2022-09-21T00:26:38.621Z,9.51
2022-09-21T00:29:08.672Z,9.51
2022-09-21T00:31:37.376Z,9.50
2022-09-21T00:34:07.995Z,9.52
2022-09-21T00:36:36.968Z,9.51
2022-09-21T00:39:06.280Z,9.52
2022-09-21T00:41:35.727Z,9.49
2022-09-21T00:44:26.407Z,9.49
2022-09-21T00:46:58.726Z,9.50
2022-09-21T00:49:29.282Z,9.50
2022-09-21T00:52:02.251Z,9.49
2022-09-21T00:54:33.947Z,9.48
2022-09-21T00:57:04.316Z,9.51
2022-09-21T00:59:36.939Z,9.52
2022-09-21T01:02:06.206Z,9.56
2022-09-21T01:04:36.602Z,9.58
2022-09-21T01:07:09.013Z,9.60
2022-09-21T01:09:38.113Z,9.60
2022-09-21T01:12:24.125Z,9.65
2022-09-21T01:15:12.632Z,9.69
2022-09-21T01:17:52.002Z,9.70
2022-09-21T01:20:59.776Z,9.74
2022-09-21T01:24:10.052Z,9.79
2022-09-21T01:27:01.873Z,9.81
2022-09-21T01:29:38.631Z,9.84
2022-09-21T01:32:13.246Z,9.85
2022-09-21T01:34:49.786Z,9.86
2022-09-21T01:37:24.046Z,9.89
2022-09-21T01:40:01.255Z,9.91
2022-09-21T01:42:31.974Z,9.91
2022-09-21T01:45:07.705Z,9.91
2022-09-21T01:47:38.946Z,9.93
2022-09-21T01:50:11.741Z,9.95
2022-09-21T01:52:46.038Z,9.97
2022-09-21T01:55:21.108Z,9.98
2022-09-21T01:57:57.161Z,10.02
2022-09-21T02:00:29.856Z,10.03
2022-09-21T02:03:05.824Z,10.02
2022-09-21T02:05:34.942Z,10.04
2022-09-21T02:08:04.005Z,10.05
2022-09-21T02:10:36.296Z,10.06
2022-09-21T02:13:08.004Z,10.08
2022-09-21T02:15:53.707Z,10.05
2022-09-21T02:18:35.949Z,10.07
2022-09-21T02:21:11.826Z,10.04
2022-09-21T02:23:48.206Z,10.08
2022-09-21T02:26:25.271Z,10.08
2022-09-21T02:29:03.153Z,10.11
2022-09-21T02:31:40.367Z,10.11
2022-09-21T02:34:18.304Z,10.07
2022-09-21T02:36:52.004Z,10.02
2022-09-21T02:39:29.663Z,10.00
2022-09-21T02:42:05.741Z,10.00
2022-09-21T02:44:37.919Z,10.01
2022-09-21T02:47:13.218Z,10.02
2022-09-21T02:49:47.061Z,10.04
2022-09-21T02:52:18.363Z,10.07
2022-09-21T02:54:50.790Z,10.07
2022-09-21T02:57:23.151Z,10.07
2022-09-21T02:59:52.640Z,10.07
2022-09-21T03:02:23.028Z,10.06
2022-09-21T03:04:51.734Z,10.09
2022-09-21T03:07:20.620Z,10.10
2022-09-21T03:09:49.098Z,10.11
2022-09-21T03:12:17.838Z,10.11
2022-09-21T03:14:46.386Z,10.14
2022-09-21T03:17:14.859Z,10.16
2022-09-21T03:19:44.817Z,10.15
2022-09-21T03:22:13.687Z,10.18
2022-09-21T03:24:47.661Z,10.18
2022-09-21T03:27:17.680Z,10.17
2022-09-21T03:29:46.934Z,10.18
2022-09-21T03:32:15.980Z,10.21
2022-09-21T03:34:46.495Z,10.23
2022-09-21T03:37:15.081Z,10.21
2022-09-21T03:39:43.686Z,10.25
2022-09-21T03:42:12.321Z,10.25
2022-09-21T03:44:41.692Z,10.25
2022-09-21T03:47:10.244Z,10.24
2022-09-21T03:49:38.948Z,10.24
2022-09-21T03:52:08.697Z,10.25
2022-09-21T03:54:37.254Z,10.27
2022-09-21T03:57:05.969Z,10.28
2022-09-21T03:59:35.707Z,10.27
2022-09-21T04:02:04.422Z,10.26
2022-09-21T04:04:32.916Z,10.27
2022-09-21T04:07:01.989Z,10.28
2022-09-21T04:09:31.936Z,10.25
2022-09-21T04:12:00.706Z,10.27
2022-09-21T04:14:29.362Z,10.28
2022-09-21T04:16:58.108Z,10.27
2022-09-21T04:19:27.044Z,10.27
2022-09-21T04:21:56.381Z,10.29
2022-09-21T04:24:25.443Z,10.29
2022-09-21T04:26:55.237Z,10.26
2022-09-21T04:29:24.136Z,10.22
2022-09-21T04:31:52.796Z,10.20
2022-09-21T04:34:21.386Z,10.18
2022-09-21T04:36:50.378Z,10.19
2022-09-21T04:39:18.785Z,10.20
2022-09-21T04:41:47.825Z,10.23
2022-09-21T04:44:18.875Z,10.25
2022-09-21T04:46:47.992Z,10.29
2022-09-21T04:49:17.094Z,10.34
2022-09-21T04:51:45.693Z,10.38
2022-09-21T04:54:14.433Z,10.40
2022-09-21T04:56:43.188Z,10.41
2022-09-21T04:59:11.876Z,10.42
2022-09-21T05:01:42.309Z,10.44
2022-09-21T05:04:11.401Z,10.44
2022-09-21T05:06:41.651Z,10.43
2022-09-21T05:09:28.274Z,10.43
2022-09-21T05:11:56.983Z,10.39
2022-09-21T05:14:25.737Z,10.44
2022-09-21T05:16:55.782Z,10.44
2022-09-21T05:19:24.426Z,10.45
2022-09-21T05:21:53.327Z,10.45
2022-09-21T05:24:22.448Z,10.47
2022-09-21T05:26:51.015Z,10.47
2022-09-21T05:29:20.008Z,10.48
2022-09-21T05:31:53.860Z,10.44
2022-09-21T05:34:39.475Z,10.45
2022-09-21T05:37:15.429Z,10.45
2022-09-21T05:39:44.881Z,10.56
2022-09-21T05:42:14.279Z,10.59
2022-09-21T05:44:43.472Z,10.57
2022-09-21T05:47:23.759Z,10.58
2022-09-21T05:50:03.576Z,10.57
2022-09-21T05:52:40.927Z,10.57
2022-09-21T05:55:21.619Z,10.59
2022-09-21T05:57:58.540Z,10.58
2022-09-21T06:00:35.322Z,10.60
2022-09-21T06:03:29.152Z,10.60
2022-09-21T06:06:00.100Z,10.61
2022-09-21T06:08:29.123Z,10.67
2022-09-21T06:10:57.735Z,10.70
2022-09-21T06:13:26.792Z,10.72
2022-09-21T06:15:55.433Z,10.71
2022-09-21T06:18:23.812Z,10.74
2022-09-21T06:20:52.547Z,10.70
2022-09-21T06:23:25.613Z,10.69
2022-09-21T06:25:58.305Z,10.67
2022-09-21T06:28:28.296Z,10.67
2022-09-21T06:30:59.161Z,10.69
2022-09-21T06:33:27.604Z,10.73
2022-09-21T06:35:58.025Z,10.75
2022-09-21T06:38:29.640Z,10.82
2022-09-21T06:41:03.287Z,10.89
2022-09-21T06:43:32.307Z,10.91
2022-09-21T06:46:04.285Z,10.93
2022-09-21T06:48:35.659Z,10.97
2022-09-21T06:51:06.796Z,11.00
2022-09-21T06:53:37.229Z,11.01
2022-09-21T06:56:07.682Z,11.10
2022-09-21T06:58:37.985Z,11.05
2022-09-21T07:01:08.856Z,11.07
2022-09-21T07:03:38.490Z,11.07
2022-09-21T07:06:08.352Z,11.04
2022-09-21T07:11:28.178Z,11.02
2022-09-21T07:13:58.644Z,11.02
2022-09-21T07:16:28.271Z,11.06
2022-09-21T07:18:57.045Z,11.13
2022-09-21T07:21:27.103Z,11.19
2022-09-21T07:23:57.193Z,11.26
2022-09-21T07:26:25.963Z,11.31
2022-09-21T07:28:54.767Z,11.33
2022-09-21T07:31:23.681Z,11.36
2022-09-21T07:33:58.299Z,11.42
2022-09-21T07:36:27.059Z,11.44
2022-09-21T07:38:57.278Z,11.46
2022-09-21T07:41:25.898Z,11.48
2022-09-21T07:43:54.725Z,11.49
2022-09-21T07:46:23.418Z,11.47
2022-09-21T07:48:55.534Z,11.47
2022-09-21T07:51:25.538Z,11.50
2022-09-21T07:53:58.171Z,11.55
2022-09-21T07:56:27.317Z,11.66
2022-09-21T07:59:07.357Z,11.82
2022-09-21T08:01:37.292Z,11.96
2022-09-21T08:04:07.235Z,12.01
2022-09-21T08:06:40.380Z,12.09
2022-09-21T08:09:11.821Z,12.12
2022-09-21T08:11:46.427Z,12.16
2022-09-21T08:14:25.184Z,12.19
2022-09-21T08:16:55.219Z,12.19
2022-09-21T08:19:26.066Z,12.20
2022-09-21T08:21:57.950Z,12.24
2022-09-21T08:24:27.941Z,12.29
2022-09-21T08:26:57.161Z,12.39
2022-09-21T08:29:26.115Z,12.52
2022-09-21T08:31:55.367Z,12.64
2022-09-21T08:34:24.787Z,12.75
2022-09-21T08:36:55.648Z,12.82
2022-09-21T08:39:24.979Z,12.84
2022-09-21T08:42:12.262Z,12.82
2022-09-21T08:44:44.400Z,12.81
2022-09-21T08:47:18.632Z,12.80
2022-09-21T08:49:50.977Z,12.85
2022-09-21T08:52:20.883Z,12.94
2022-09-21T08:54:56.056Z,13.16
2022-09-21T08:57:31.035Z,13.29
2022-09-21T09:00:01.820Z,13.33
2022-09-21T09:02:47.437Z,13.31
2022-09-21T09:05:34.933Z,13.38
2022-09-21T09:08:19.695Z,13.52
2022-09-21T09:11:00.175Z,13.60
2022-09-21T09:13:47.964Z,13.73
2022-09-21T09:16:21.885Z,13.90
2022-09-21T09:18:54.312Z,14.06
2022-09-21T09:21:30.292Z,14.04
2022-09-21T09:24:05.200Z,14.02
2022-09-21T09:26:42.952Z,13.99
2022-09-21T09:29:22.355Z,14.06
2022-09-21T09:31:55.766Z,14.22
2022-09-21T09:34:30.826Z,14.43
2022-09-21T09:37:01.928Z,14.59
2022-09-21T09:39:32.165Z,14.64
2022-09-21T09:42:25.721Z,14.78
2022-09-21T09:45:26.229Z,14.96
2022-09-21T09:48:13.199Z,15.06
2022-09-21T09:50:44.255Z,15.16
2022-09-21T09:53:16.145Z,15.07
2022-09-21T09:55:48.155Z,14.90
2022-09-21T09:58:20.492Z,14.76
2022-09-21T10:00:54.744Z,14.70
2022-09-21T10:03:24.885Z,14.66
2022-09-21T10:05:54.458Z,14.67
2022-09-21T10:08:33.071Z,14.65
2022-09-21T10:11:03.081Z,14.52
2022-09-21T10:13:34.578Z,14.40
2022-09-21T10:16:13.084Z,14.30
2022-09-21T10:18:47.888Z,14.28
2022-09-21T10:21:22.736Z,14.60
2022-09-21T10:23:54.197Z,15.12
2022-09-21T10:26:23.433Z,15.56
2022-09-21T10:29:03.228Z,15.76
2022-09-21T10:31:33.649Z,15.81
2022-09-21T10:34:15.449Z,15.67
2022-09-21T10:36:51.948Z,15.66
2022-09-21T10:39:23.305Z,15.78
2022-09-21T10:42:00.330Z,15.84
2022-09-21T10:44:37.306Z,15.81
2022-09-21T10:47:19.941Z,15.62
2022-09-21T10:49:52.113Z,15.47
2022-09-21T10:52:24.239Z,15.34
2022-09-21T10:54:57.523Z,15.28
2022-09-21T10:57:28.215Z,15.18
2022-09-21T10:59:58.093Z,15.06
2022-09-21T11:02:36.688Z,14.97
2022-09-21T11:05:14.216Z,14.88
2022-09-21T11:07:49.192Z,14.85
2022-09-21T11:10:25.670Z,14.84
2022-09-21T11:13:02.640Z,14.82
2022-09-21T11:15:43.762Z,14.83
2022-09-21T11:18:21.421Z,14.91
2022-09-21T11:20:55.525Z,15.02
2022-09-21T11:23:47.356Z,15.20
2022-09-21T11:26:23.722Z,15.41
2022-09-21T11:28:59.085Z,15.61
2022-09-21T11:31:42.674Z,15.75
2022-09-21T11:34:27.214Z,15.81
2022-09-21T11:37:11.089Z,15.69
2022-09-21T11:39:55.969Z,15.63
2022-09-21T11:42:41.038Z,15.67
2022-09-21T11:45:28.773Z,15.80
2022-09-21T11:48:12.992Z,16.22
2022-09-21T11:53:42.372Z,16.30
2022-09-21T11:56:37.061Z,16.78
2022-09-21T11:59:23.793Z,16.95
2022-09-21T12:02:20.126Z,16.89
2022-09-21T12:04:55.216Z,17.41
2022-09-21T12:07:46.408Z,17.37
2022-09-21T12:10:40.320Z,16.92
2022-09-21T12:13:19.267Z,16.64
2022-09-21T12:15:58.179Z,16.49
2022-09-21T12:18:37.291Z,16.37
2022-09-21T12:21:14.900Z,16.21
2022-09-21T12:23:47.852Z,16.06
2022-09-21T12:26:21.384Z,15.85
2022-09-21T12:28:55.088Z,15.66
2022-09-21T12:31:31.903Z,15.54
2022-09-21T12:34:06.452Z,15.43
2022-09-21T12:36:41.822Z,15.34
2022-09-21T12:39:20.797Z,15.29
2022-09-21T12:41:55.840Z,15.20
2022-09-21T12:44:33.927Z,15.09
2022-09-21T12:47:10.679Z,15.03
2022-09-21T12:49:44.082Z,14.96
2022-09-21T12:52:21.414Z,14.87
2022-09-21T12:54:58.255Z,14.76
2022-09-21T12:57:58.646Z,14.37
2022-09-21T13:00:32.824Z,13.69
2022-09-21T13:03:12.749Z,13.30
2022-09-21T13:05:53.433Z,13.10
2022-09-21T13:08:29.352Z,12.96
2022-09-21T13:11:05.030Z,12.92
2022-09-21T13:13:36.436Z,13.04
2022-09-21T13:16:08.253Z,13.18
2022-09-21T13:18:40.080Z,13.37
2022-09-21T13:21:20.162Z,13.63
2022-09-21T13:23:56.651Z,14.04
2022-09-21T13:26:37.178Z,14.36
2022-09-21T13:29:29.808Z,14.54
2022-09-21T13:32:01.101Z,14.68
2022-09-21T13:34:37.165Z,14.78
2022-09-21T13:37:34.759Z,14.82
2022-09-21T13:40:35.156Z,14.86
2022-09-21T13:43:25.691Z,14.90
2022-09-21T13:45:59.865Z,14.94
2022-09-21T13:48:34.138Z,14.96
2022-09-21T13:51:10.259Z,14.91
2022-09-21T13:53:42.539Z,14.86
2022-09-21T13:56:21.080Z,14.84
2022-09-21T13:58:55.176Z,14.78
2022-09-21T14:04:24.839Z,14.84
2022-09-21T14:06:55.255Z,14.86
2022-09-21T14:09:28.870Z,14.77
2022-09-21T14:12:02.084Z,14.70
2022-09-21T14:14:37.611Z,14.59
2022-09-21T14:17:08.008Z,14.51
2022-09-21T14:20:07.424Z,14.41
2022-09-21T14:22:39.761Z,14.37
2022-09-21T14:25:29.351Z,14.36
2022-09-21T14:28:05.429Z,14.35
2022-09-21T14:30:37.266Z,14.37
2022-09-21T14:33:19.638Z,14.43
2022-09-21T14:35:49.458Z,14.46
2022-09-21T14:38:23.524Z,14.45
2022-09-21T14:40:54.050Z,14.47
2022-09-21T14:43:27.607Z,14.45
2022-09-21T14:46:22.827Z,14.44
2022-09-21T14:49:06.772Z,14.40
2022-09-21T14:51:44.365Z,14.41
2022-09-21T14:54:32.650Z,14.34
2022-09-21T14:57:17.837Z,14.27
2022-09-21T15:00:07.192Z,14.24
2022-09-21T15:02:38.330Z,14.22
2022-09-21T15:05:21.154Z,14.13
2022-09-21T15:08:16.403Z,14.08
2022-09-21T15:10:58.591Z,14.00
2022-09-21T15:13:46.826Z,13.92
2022-09-21T15:16:23.677Z,13.91
2022-09-21T15:19:07.897Z,13.89
2022-09-21T15:21:38.322Z,13.90
2022-09-21T15:24:19.976Z,13.86
2022-09-21T15:26:51.853Z,13.79
2022-09-21T15:29:24.780Z,13.70
2022-09-21T15:31:53.863Z,13.67
2022-09-21T15:34:25.741Z,13.58
2022-09-21T15:36:55.216Z,13.50
2022-09-21T15:39:28.908Z,13.38
2022-09-21T15:42:23.351Z,13.27
2022-09-21T15:45:06.122Z,13.19
2022-09-21T15:47:35.451Z,13.14
2022-09-21T15:50:06.081Z,13.08
2022-09-21T15:52:42.882Z,13.01
2022-09-21T15:55:18.295Z,12.96
2022-09-21T15:57:48.021Z,12.98
2022-09-21T16:00:23.769Z,12.92
2022-09-21T16:03:05.586Z,12.86
2022-09-21T16:05:44.223Z,12.78
2022-09-21T16:08:27.839Z,12.69
2022-09-21T16:11:15.461Z,12.62
2022-09-21T16:14:17.892Z,12.60
2022-09-21T16:17:09.321Z,12.51
2022-09-21T16:19:43.107Z,12.45
2022-09-21T16:22:16.143Z,12.42
2022-09-21T16:24:53.995Z,12.44
2022-09-21T16:27:27.201Z,12.44
2022-09-21T16:29:57.306Z,12.46
2022-09-21T16:32:32.828Z,12.44
2022-09-21T16:35:27.182Z,12.42
2022-09-21T16:37:59.093Z,12.41
2022-09-21T16:40:27.732Z,12.41
2022-09-21T16:42:58.111Z,12.42
2022-09-21T16:45:31.919Z,12.42
2022-09-21T16:48:02.796Z,12.42
2022-09-21T16:50:31.527Z,12.41
2022-09-21T16:53:01.822Z,12.39
2022-09-21T16:55:30.329Z,12.38
2022-09-21T16:58:00.809Z,12.38
2022-09-21T17:00:32.691Z,12.36
2022-09-21T17:03:02.546Z,12.32
2022-09-21T17:05:31.121Z,12.30
2022-09-21T17:08:01.707Z,12.27
2022-09-21T17:10:35.234Z,12.26
2022-09-21T17:13:04.662Z,12.22
2022-09-21T17:15:36.009Z,12.19
2022-09-21T17:18:05.926Z,12.17
2022-09-21T17:20:37.958Z,12.14
2022-09-21T17:23:08.639Z,12.11
2022-09-21T17:25:38.663Z,12.07
2022-09-21T17:28:15.767Z,12.03
2022-09-21T17:30:46.992Z,12.01
2022-09-21T17:33:17.927Z,11.97
2022-09-21T17:35:46.700Z,11.93
2022-09-21T17:38:16.748Z,11.90
2022-09-21T17:40:46.891Z,11.88
2022-09-21T17:43:33.860Z,11.86
2022-09-21T17:46:09.130Z,11.82
2022-09-21T17:48:40.830Z,11.82
2022-09-21T17:51:10.647Z,11.81
2022-09-21T17:53:41.832Z,11.82
2022-09-21T17:56:30.382Z,11.80
2022-09-21T17:59:03.544Z,11.78
2022-09-21T18:01:35.141Z,11.77
2022-09-21T18:04:05.067Z,11.72
2022-09-21T18:06:35.100Z,11.68
2022-09-21T18:09:06.253Z,11.68
2022-09-21T18:12:01.912Z,11.68
2022-09-21T18:14:41.709Z,11.70
2022-09-21T18:17:33.651Z,11.72
2022-09-21T18:20:09.025Z,11.70
2022-09-21T18:22:49.076Z,11.69
2022-09-21T18:25:27.674Z,11.70
2022-09-21T18:27:59.108Z,11.71
2022-09-21T18:30:28.011Z,11.70
2022-09-21T18:33:10.834Z,11.72
2022-09-21T18:35:57.372Z,11.73
2022-09-21T18:38:32.606Z,11.72
2022-09-21T18:41:17.957Z,11.73
2022-09-21T18:44:05.681Z,11.72
2022-09-21T18:46:47.556Z,11.69
2022-09-21T18:49:24.059Z,11.65
2022-09-21T18:51:58.874Z,11.63
2022-09-21T18:54:28.927Z,11.60
2022-09-21T18:57:01.142Z,11.55
2022-09-21T18:59:32.110Z,11.52
2022-09-21T19:02:01.748Z,11.47
2022-09-21T19:04:30.816Z,11.46
2022-09-21T19:07:04.518Z,11.42
2022-09-21T19:09:41.986Z,11.37
2022-09-21T19:12:28.972Z,11.37
2022-09-21T19:15:12.542Z,11.34
2022-09-21T19:17:58.091Z,11.33
2022-09-21T19:20:51.625Z,11.33
2022-09-21T19:23:32.506Z,11.30
2022-09-21T19:26:08.349Z,11.29
2022-09-21T19:28:54.842Z,11.24
2022-09-21T19:31:24.038Z,11.22
2022-09-21T19:33:53.011Z,11.18
2022-09-21T19:36:24.295Z,11.12
2022-09-21T19:38:54.057Z,11.08
2022-09-21T19:41:38.431Z,11.05
2022-09-21T19:44:32.804Z,11.03
2022-09-21T19:47:10.393Z,10.99
2022-09-21T19:49:47.403Z,10.92
2022-09-21T19:52:18.649Z,10.90
2022-09-21T19:55:05.564Z,10.89
2022-09-21T19:57:52.985Z,10.82
2022-09-21T20:00:24.338Z,10.76
2022-09-21T20:03:01.299Z,10.76
2022-09-21T20:05:39.113Z,10.74
2022-09-21T20:08:14.534Z,10.73
2022-09-21T20:10:58.117Z,10.70
2022-09-21T20:13:40.898Z,10.71
2022-09-21T20:16:27.227Z,10.70
2022-09-21T20:19:01.708Z,10.69
2022-09-21T20:21:45.089Z,10.68
2022-09-21T20:24:20.943Z,10.67
2022-09-21T20:26:52.083Z,10.65
2022-09-21T20:29:23.102Z,10.65
2022-09-21T20:31:55.440Z,10.69
2022-09-21T20:34:24.186Z,10.71
2022-09-21T20:36:53.175Z,10.70
2022-09-21T20:39:22.446Z,10.69
2022-09-21T20:41:52.781Z,10.70
2022-09-21T20:44:22.184Z,10.70
2022-09-21T20:46:53.026Z,10.70
2022-09-21T20:49:22.493Z,10.71
2022-09-21T20:51:51.596Z,10.71
2022-09-21T20:54:21.121Z,10.76
2022-09-21T20:56:50.671Z,10.76
2022-09-21T20:59:19.225Z,10.76
2022-09-21T21:01:48.236Z,10.77
2022-09-21T21:04:20.009Z,10.78
2022-09-21T21:06:49.342Z,10.74
2022-09-21T21:09:18.669Z,10.73
2022-09-21T21:11:48.191Z,10.73
2022-09-21T21:14:17.237Z,10.70
2022-09-21T21:16:46.358Z,10.69
2022-09-21T21:19:15.963Z,10.66
2022-09-21T21:21:46.473Z,10.67
2022-09-21T21:24:33.030Z,10.67
2022-09-21T21:27:03.153Z,10.64
2022-09-21T21:29:32.817Z,10.59
2022-09-21T21:32:04.095Z,10.55
2022-09-21T21:34:33.773Z,10.49
2022-09-21T21:37:03.678Z,10.44
2022-09-21T21:39:32.828Z,10.36
2022-09-21T21:42:01.535Z,10.31
2022-09-21T21:44:30.118Z,10.27
2022-09-21T21:47:10.363Z,10.21
2022-09-21T21:49:44.154Z,10.16
2022-09-21T21:52:14.197Z,10.16
2022-09-21T21:54:43.261Z,10.17
2022-09-21T21:57:12.622Z,10.19
2022-09-21T21:59:42.678Z,10.19
2022-09-21T22:02:11.611Z,10.21
2022-09-21T22:04:40.148Z,10.23
2022-09-21T22:07:08.769Z,10.23
2022-09-21T22:09:38.846Z,10.23
2022-09-21T22:12:07.998Z,10.22
2022-09-21T22:14:36.967Z,10.20
2022-09-21T22:17:07.120Z,10.21
2022-09-21T22:19:36.007Z,10.20
2022-09-21T22:22:04.866Z,10.21
2022-09-21T22:24:34.218Z,10.22
2022-09-21T22:27:04.520Z,10.21
2022-09-21T22:29:33.209Z,10.23
2022-09-21T22:32:02.295Z,10.23
2022-09-21T22:34:31.600Z,10.23
2022-09-21T22:37:01.119Z,10.24
2022-09-21T22:39:31.298Z,10.24
2022-09-21T22:42:00.447Z,10.22
2022-09-21T22:44:30.787Z,10.23
2022-09-21T22:47:00.303Z,10.20
2022-09-21T22:49:30.163Z,10.19
2022-09-21T22:51:59.236Z,10.20
2022-09-21T22:54:28.775Z,10.18
2022-09-21T22:56:57.846Z,10.19
2022-09-21T22:59:26.700Z,10.15
2022-09-21T23:15:28.788Z,10.23
2022-09-21T23:17:57.558Z,10.23
2022-09-21T23:20:26.300Z,10.24
2022-09-21T23:22:55.310Z,10.26
2022-09-21T23:25:24.174Z,10.25
2022-09-21T23:27:53.213Z,10.24
2022-09-21T23:30:21.952Z,10.22
2022-09-21T23:32:53.925Z,10.25
2022-09-21T23:35:22.567Z,10.26
2022-09-21T23:37:51.005Z,10.28
2022-09-21T23:40:19.821Z,10.29
2022-09-21T23:42:49.097Z,10.28
2022-09-21T23:45:17.907Z,10.28
2022-09-21T23:47:46.434Z,10.30
2022-09-21T23:50:16.731Z,10.32
2022-09-21T23:52:45.204Z,10.35
2022-09-21T23:55:14.017Z,10.39
2022-09-21T23:57:42.664Z,10.39
